sensor_id;sensor_type;location;lat;lon;timestamp;temperature;humidity
5118;DHT22;2578;51.622;7.046;2023-06-14T00:02:06;16.90;99.90
5118;DHT22;2578;51.622;7.046;2023-06-14T00:04:34;16.90;99.90
5118;DHT22;2578;51.622;7.046;2023-06-14T00:07:00;16.90;99.90
5118;DHT22;2578;51.622;7.046;2023-06-14T00:09:25;16.80;99.90
5118;DHT22;2578;51.622;7.046;2023-06-14T00:11:51;16.80;99.90
5118;DHT22;2578;51.622;7.046;2023-06-14T00:14:17;16.80;99.90
5118;DHT22;2578;51.622;7.046;2023-06-14T00:16:42;16.70;99.90
5118;DHT22;2578;51.622;7.046;2023-06-14T00:19:09;16.70;99.90
5118;DHT22;2578;51.622;7.046;2023-06-14T00:21:36;16.70;99.90
5118;DHT22;2578;51.622;7.046;2023-06-14T00:24:03;16.60;99.90
5118;DHT22;2578;51.622;7.046;2023-06-14T00:26:29;16.70;99.90
5118;DHT22;2578;51.622;7.046;2023-06-14T00:28:55;16.70;99.90
5118;DHT22;2578;51.622;7.046;2023-06-14T00:31:22;16.70;99.90
5118;DHT22;2578;51.622;7.046;2023-06-14T00:33:48;16.60;99.90
5118;DHT22;2578;51.622;7.046;2023-06-14T00:36:14;16.70;99.90
5118;DHT22;2578;51.622;7.046;2023-06-14T00:38:40;16.60;99.90
5118;DHT22;2578;51.622;7.046;2023-06-14T00:41:07;16.60;99.90
5118;DHT22;2578;51.622;7.046;2023-06-14T00:43:32;16.50;99.90
5118;DHT22;2578;51.622;7.046;2023-06-14T00:46:00;16.50;99.90
5118;DHT22;2578;51.622;7.046;2023-06-14T00:48:25;16.40;99.90
5118;DHT22;2578;51.622;7.046;2023-06-14T00:50:52;16.30;99.90
5118;DHT22;2578;51.622;7.046;2023-06-14T00:53:18;16.30;99.90
5118;DHT22;2578;51.622;7.046;2023-06-14T00:55:46;16.30;99.90
5118;DHT22;2578;51.622;7.046;2023-06-14T00:58:12;16.30;99.90
5118;DHT22;2578;51.622;7.046;2023-06-14T01:00:38;16.20;99.90
5118;DHT22;2578;51.622;7.046;2023-06-14T01:03:04;16.20;99.90
5118;DHT22;2578;51.622;7.046;2023-06-14T01:05:30;16.20;99.90
5118;DHT22;2578;51.622;7.046;2023-06-14T01:08:09;16.10;99.90
5118;DHT22;2578;51.622;7.046;2023-06-14T01:11:02;15.90;99.90
5118;DHT22;2578;51.622;7.046;2023-06-14T01:13:36;15.90;99.90
5118;DHT22;2578;51.622;7.046;2023-06-14T01:16:03;15.80;99.90
5118;DHT22;2578;51.622;7.046;2023-06-14T01:18:30;15.80;99.90
5118;DHT22;2578;51.622;7.046;2023-06-14T01:20:57;15.70;99.90
5118;DHT22;2578;51.622;7.046;2023-06-14T01:23:23;15.70;99.90
5118;DHT22;2578;51.622;7.046;2023-06-14T01:25:49;15.60;99.90
5118;DHT22;2578;51.622;7.046;2023-06-14T01:28:19;15.60;99.90
5118;DHT22;2578;51.622;7.046;2023-06-14T01:30:49;15.60;99.90
5118;DHT22;2578;51.622;7.046;2023-06-14T01:33:21;16.90;99.90
5118;DHT22;2578;51.622;7.046;2023-06-14T01:35:51;15.50;99.90
5118;DHT22;2578;51.622;7.046;2023-06-14T01:38:22;15.50;99.90
5118;DHT22;2578;51.622;7.046;2023-06-14T01:40:50;15.40;99.90
5118;DHT22;2578;51.622;7.046;2023-06-14T01:43:18;15.40;99.90
5118;DHT22;2578;51.622;7.046;2023-06-14T01:45:46;15.40;99.90
5118;DHT22;2578;51.622;7.046;2023-06-14T01:48:14;15.20;99.90
5118;DHT22;2578;51.622;7.046;2023-06-14T01:50:40;15.20;99.90
5118;DHT22;2578;51.622;7.046;2023-06-14T01:53:09;15.10;99.90
5118;DHT22;2578;51.622;7.046;2023-06-14T01:55:35;15.00;99.90
5118;DHT22;2578;51.622;7.046;2023-06-14T01:58:05;14.90;99.90
5118;DHT22;2578;51.622;7.046;2023-06-14T02:00:31;14.80;99.90
5118;DHT22;2578;51.622;7.046;2023-06-14T02:02:56;14.70;99.90
5118;DHT22;2578;51.622;7.046;2023-06-14T02:05:22;14.80;99.90
5118;DHT22;2578;51.622;7.046;2023-06-14T02:07:48;14.70;99.90
5118;DHT22;2578;51.622;7.046;2023-06-14T02:10:14;15.90;99.90
5118;DHT22;2578;51.622;7.046;2023-06-14T02:12:40;14.50;99.90
5118;DHT22;2578;51.622;7.046;2023-06-14T02:15:07;14.50;99.90
5118;DHT22;2578;51.622;7.046;2023-06-14T02:17:33;14.50;99.90
5118;DHT22;2578;51.622;7.046;2023-06-14T02:19:59;14.40;99.90
5118;DHT22;2578;51.622;7.046;2023-06-14T02:22:26;14.40;99.90
5118;DHT22;2578;51.622;7.046;2023-06-14T02:24:51;14.50;99.90
5118;DHT22;2578;51.622;7.046;2023-06-14T02:27:18;14.50;99.90
5118;DHT22;2578;51.622;7.046;2023-06-14T02:29:43;14.50;99.90
5118;DHT22;2578;51.622;7.046;2023-06-14T02:32:09;14.50;99.90
5118;DHT22;2578;51.622;7.046;2023-06-14T02:34:35;14.50;99.90
5118;DHT22;2578;51.622;7.046;2023-06-14T02:37:01;14.40;99.90
5118;DHT22;2578;51.622;7.046;2023-06-14T02:39:28;14.30;99.90
5118;DHT22;2578;51.622;7.046;2023-06-14T02:41:54;14.30;99.90
5118;DHT22;2578;51.622;7.046;2023-06-14T02:44:24;14.30;99.90
5118;DHT22;2578;51.622;7.046;2023-06-14T02:46:51;14.30;99.90
5118;DHT22;2578;51.622;7.046;2023-06-14T02:49:16;14.30;99.90
5118;DHT22;2578;51.622;7.046;2023-06-14T02:51:42;14.20;99.90
5118;DHT22;2578;51.622;7.046;2023-06-14T02:54:07;14.20;99.90
5118;DHT22;2578;51.622;7.046;2023-06-14T02:56:33;14.10;99.90
5118;DHT22;2578;51.622;7.046;2023-06-14T02:58:59;14.00;99.90
5118;DHT22;2578;51.622;7.046;2023-06-14T03:01:26;14.00;99.90
5118;DHT22;2578;51.622;7.046;2023-06-14T03:04:01;14.00;99.90
5118;DHT22;2578;51.622;7.046;2023-06-14T03:06:28;13.90;99.90
5118;DHT22;2578;51.622;7.046;2023-06-14T03:08:58;13.90;99.90
5118;DHT22;2578;51.622;7.046;2023-06-14T03:11:30;13.80;99.90
5118;DHT22;2578;51.622;7.046;2023-06-14T03:13:55;13.80;99.90
5118;DHT22;2578;51.622;7.046;2023-06-14T03:16:22;13.80;99.90
5118;DHT22;2578;51.622;7.046;2023-06-14T03:18:50;13.80;99.90
5118;DHT22;2578;51.622;7.046;2023-06-14T03:21:16;13.80;99.90
5118;DHT22;2578;51.622;7.046;2023-06-14T03:23:43;13.90;99.90
5118;DHT22;2578;51.622;7.046;2023-06-14T03:26:09;13.80;99.90
5118;DHT22;2578;51.622;7.046;2023-06-14T03:28:38;13.80;99.90
5118;DHT22;2578;51.622;7.046;2023-06-14T03:31:03;13.90;99.90
5118;DHT22;2578;51.622;7.046;2023-06-14T03:33:29;13.90;99.90
5118;DHT22;2578;51.622;7.046;2023-06-14T03:35:55;13.90;99.90
5118;DHT22;2578;51.622;7.046;2023-06-14T03:38:21;13.90;99.90
5118;DHT22;2578;51.622;7.046;2023-06-14T03:40:47;13.80;99.90
5118;DHT22;2578;51.622;7.046;2023-06-14T03:43:13;13.80;99.90
5118;DHT22;2578;51.622;7.046;2023-06-14T03:45:38;13.80;99.90
5118;DHT22;2578;51.622;7.046;2023-06-14T03:48:04;13.80;99.90
5118;DHT22;2578;51.622;7.046;2023-06-14T03:50:32;13.80;99.90
5118;DHT22;2578;51.622;7.046;2023-06-14T03:52:58;13.70;99.90
5118;DHT22;2578;51.622;7.046;2023-06-14T03:55:23;13.80;99.90
5118;DHT22;2578;51.622;7.046;2023-06-14T03:57:51;13.80;99.90
5118;DHT22;2578;51.622;7.046;2023-06-14T04:00:17;13.90;99.90
5118;DHT22;2578;51.622;7.046;2023-06-14T04:02:43;14.00;99.90
5118;DHT22;2578;51.622;7.046;2023-06-14T04:05:12;14.00;99.90
5118;DHT22;2578;51.622;7.046;2023-06-14T04:07:38;15.20;99.90
5118;DHT22;2578;51.622;7.046;2023-06-14T04:10:06;14.10;99.90
5118;DHT22;2578;51.622;7.046;2023-06-14T04:12:33;14.10;99.90
5118;DHT22;2578;51.622;7.046;2023-06-14T04:14:59;14.20;99.90
5118;DHT22;2578;51.622;7.046;2023-06-14T04:17:25;14.20;99.90
5118;DHT22;2578;51.622;7.046;2023-06-14T04:19:52;14.60;99.90
5118;DHT22;2578;51.622;7.046;2023-06-14T04:22:17;14.30;99.90
5118;DHT22;2578;51.622;7.046;2023-06-14T04:24:43;14.30;99.90
5118;DHT22;2578;51.622;7.046;2023-06-14T04:27:10;14.40;99.90
5118;DHT22;2578;51.622;7.046;2023-06-14T04:29:35;14.50;99.90
5118;DHT22;2578;51.622;7.046;2023-06-14T04:32:01;14.60;99.90
5118;DHT22;2578;51.622;7.046;2023-06-14T04:36:58;14.80;99.90
5118;DHT22;2578;51.622;7.046;2023-06-14T04:39:25;14.90;99.90
5118;DHT22;2578;51.622;7.046;2023-06-14T04:41:51;15.10;99.90
5118;DHT22;2578;51.622;7.046;2023-06-14T04:44:18;15.20;99.90
5118;DHT22;2578;51.622;7.046;2023-06-14T04:46:45;15.30;99.90
5118;DHT22;2578;51.622;7.046;2023-06-14T04:49:15;15.50;99.90
5118;DHT22;2578;51.622;7.046;2023-06-14T04:51:44;15.70;99.90
5118;DHT22;2578;51.622;7.046;2023-06-14T04:54:11;15.80;99.90
5118;DHT22;2578;51.622;7.046;2023-06-14T04:56:39;16.30;99.90
5118;DHT22;2578;51.622;7.046;2023-06-14T04:59:05;16.70;99.90
5118;DHT22;2578;51.622;7.046;2023-06-14T05:01:32;17.50;99.90
5118;DHT22;2578;51.622;7.046;2023-06-14T05:03:59;17.60;99.90
5118;DHT22;2578;51.622;7.046;2023-06-14T05:06:26;17.80;99.90
5118;DHT22;2578;51.622;7.046;2023-06-14T05:08:53;18.00;99.90
5118;DHT22;2578;51.622;7.046;2023-06-14T05:11:19;18.50;99.90
5118;DHT22;2578;51.622;7.046;2023-06-14T05:13:44;18.50;99.90
5118;DHT22;2578;51.622;7.046;2023-06-14T05:16:11;18.70;99.90
5118;DHT22;2578;51.622;7.046;2023-06-14T05:18:37;18.90;99.90
5118;DHT22;2578;51.622;7.046;2023-06-14T05:21:03;19.10;99.90
5118;DHT22;2578;51.622;7.046;2023-06-14T05:23:32;19.20;99.90
5118;DHT22;2578;51.622;7.046;2023-06-14T05:25:58;19.40;99.90
5118;DHT22;2578;51.622;7.046;2023-06-14T05:28:24;19.60;99.90
5118;DHT22;2578;51.622;7.046;2023-06-14T05:30:50;19.70;99.90
5118;DHT22;2578;51.622;7.046;2023-06-14T05:33:16;19.70;99.90
5118;DHT22;2578;51.622;7.046;2023-06-14T05:35:42;19.90;99.90
5118;DHT22;2578;51.622;7.046;2023-06-14T05:38:08;20.00;99.90
5118;DHT22;2578;51.622;7.046;2023-06-14T05:40:34;20.00;99.90
5118;DHT22;2578;51.622;7.046;2023-06-14T05:43:00;20.00;99.90
5118;DHT22;2578;51.622;7.046;2023-06-14T05:45:29;20.10;99.90
5118;DHT22;2578;51.622;7.046;2023-06-14T05:47:55;20.20;99.90
5118;DHT22;2578;51.622;7.046;2023-06-14T05:50:21;20.10;99.90
5118;DHT22;2578;51.622;7.046;2023-06-14T05:52:47;20.10;99.90
5118;DHT22;2578;51.622;7.046;2023-06-14T05:55:12;20.00;99.90
5118;DHT22;2578;51.622;7.046;2023-06-14T05:57:38;20.20;99.90
5118;DHT22;2578;51.622;7.046;2023-06-14T06:00:05;20.40;99.90
5118;DHT22;2578;51.622;7.046;2023-06-14T06:02:36;20.60;99.90
5118;DHT22;2578;51.622;7.046;2023-06-14T06:05:02;20.60;99.90
5118;DHT22;2578;51.622;7.046;2023-06-14T06:07:28;20.70;99.90
5118;DHT22;2578;51.622;7.046;2023-06-14T06:09:53;20.70;99.90
5118;DHT22;2578;51.622;7.046;2023-06-14T06:12:19;20.80;99.90
5118;DHT22;2578;51.622;7.046;2023-06-14T06:14:45;20.80;99.90
5118;DHT22;2578;51.622;7.046;2023-06-14T06:17:10;20.90;99.90
5118;DHT22;2578;51.622;7.046;2023-06-14T06:19:36;20.90;99.90
5118;DHT22;2578;51.622;7.046;2023-06-14T06:22:02;21.10;99.90
5118;DHT22;2578;51.622;7.046;2023-06-14T06:24:30;19.70;99.90
5118;DHT22;2578;51.622;7.046;2023-06-14T06:26:55;21.20;99.90
5118;DHT22;2578;51.622;7.046;2023-06-14T06:29:21;21.40;99.90
5118;DHT22;2578;51.622;7.046;2023-06-14T06:31:47;21.40;99.90
5118;DHT22;2578;51.622;7.046;2023-06-14T06:34:12;21.30;99.90
5118;DHT22;2578;51.622;7.046;2023-06-14T06:36:38;21.50;99.90
5118;DHT22;2578;51.622;7.046;2023-06-14T06:39:03;21.50;99.90
5118;DHT22;2578;51.622;7.046;2023-06-14T06:41:38;23.00;99.90
5118;DHT22;2578;51.622;7.046;2023-06-14T06:44:06;22.20;99.90
5118;DHT22;2578;51.622;7.046;2023-06-14T06:46:32;22.30;99.90
5118;DHT22;2578;51.622;7.046;2023-06-14T06:48:58;22.30;99.90
5118;DHT22;2578;51.622;7.046;2023-06-14T06:51:24;22.40;99.90
5118;DHT22;2578;51.622;7.046;2023-06-14T06:53:53;22.40;99.90
5118;DHT22;2578;51.622;7.046;2023-06-14T06:56:20;22.30;99.90
5118;DHT22;2578;51.622;7.046;2023-06-14T06:58:49;22.30;99.90
5118;DHT22;2578;51.622;7.046;2023-06-14T07:01:16;22.20;99.90
5118;DHT22;2578;51.622;7.046;2023-06-14T07:03:42;22.20;99.90
5118;DHT22;2578;51.622;7.046;2023-06-14T07:06:07;22.10;99.90
5118;DHT22;2578;51.622;7.046;2023-06-14T07:08:33;22.40;99.90
5118;DHT22;2578;51.622;7.046;2023-06-14T07:10:59;22.90;99.90
5118;DHT22;2578;51.622;7.046;2023-06-14T07:13:25;22.90;99.90
5118;DHT22;2578;51.622;7.046;2023-06-14T07:15:53;23.20;99.90
5118;DHT22;2578;51.622;7.046;2023-06-14T07:18:19;23.20;99.90
5118;DHT22;2578;51.622;7.046;2023-06-14T07:20:45;22.90;99.90
5118;DHT22;2578;51.622;7.046;2023-06-14T07:23:12;22.90;99.90
5118;DHT22;2578;51.622;7.046;2023-06-14T07:25:38;23.20;99.90
5118;DHT22;2578;51.622;7.046;2023-06-14T07:28:04;23.50;99.90
5118;DHT22;2578;51.622;7.046;2023-06-14T07:30:29;23.60;99.90
5118;DHT22;2578;51.622;7.046;2023-06-14T07:32:55;23.80;99.90
5118;DHT22;2578;51.622;7.046;2023-06-14T07:35:21;23.60;99.90
5118;DHT22;2578;51.622;7.046;2023-06-14T07:37:47;23.40;99.90
5118;DHT22;2578;51.622;7.046;2023-06-14T07:40:13;23.30;99.90
5118;DHT22;2578;51.622;7.046;2023-06-14T07:42:39;23.40;99.90
5118;DHT22;2578;51.622;7.046;2023-06-14T07:45:05;23.40;99.90
5118;DHT22;2578;51.622;7.046;2023-06-14T07:47:31;23.50;99.90
5118;DHT22;2578;51.622;7.046;2023-06-14T07:49:57;23.50;99.90
5118;DHT22;2578;51.622;7.046;2023-06-14T07:52:23;23.50;99.90
5118;DHT22;2578;51.622;7.046;2023-06-14T07:54:48;23.50;99.90
5118;DHT22;2578;51.622;7.046;2023-06-14T07:57:14;23.30;99.90
5118;DHT22;2578;51.622;7.046;2023-06-14T07:59:40;23.40;99.90
5118;DHT22;2578;51.622;7.046;2023-06-14T08:02:06;23.40;99.90
5118;DHT22;2578;51.622;7.046;2023-06-14T08:04:32;23.50;99.90
5118;DHT22;2578;51.622;7.046;2023-06-14T08:06:59;23.80;99.90
5118;DHT22;2578;51.622;7.046;2023-06-14T08:09:24;24.00;99.90
5118;DHT22;2578;51.622;7.046;2023-06-14T08:11:50;24.10;99.90
5118;DHT22;2578;51.622;7.046;2023-06-14T08:14:16;24.20;99.90
5118;DHT22;2578;51.622;7.046;2023-06-14T08:16:42;24.30;99.90
5118;DHT22;2578;51.622;7.046;2023-06-14T08:19:08;24.20;99.90
5118;DHT22;2578;51.622;7.046;2023-06-14T08:21:33;24.40;99.90
5118;DHT22;2578;51.622;7.046;2023-06-14T08:24:01;24.50;99.90
5118;DHT22;2578;51.622;7.046;2023-06-14T08:26:27;26.20;99.90
5118;DHT22;2578;51.622;7.046;2023-06-14T08:28:57;24.60;99.90
5118;DHT22;2578;51.622;7.046;2023-06-14T08:31:23;24.30;99.90
5118;DHT22;2578;51.622;7.046;2023-06-14T08:33:49;24.30;99.90
5118;DHT22;2578;51.622;7.046;2023-06-14T08:36:15;24.10;99.90
5118;DHT22;2578;51.622;7.046;2023-06-14T08:38:41;24.30;99.90
5118;DHT22;2578;51.622;7.046;2023-06-14T08:41:08;24.60;99.90
5118;DHT22;2578;51.622;7.046;2023-06-14T08:43:36;24.60;99.90
5118;DHT22;2578;51.622;7.046;2023-06-14T08:46:03;24.60;99.90
5118;DHT22;2578;51.622;7.046;2023-06-14T08:48:30;24.60;99.90
5118;DHT22;2578;51.622;7.046;2023-06-14T08:51:02;24.60;99.90
5118;DHT22;2578;51.622;7.046;2023-06-14T08:53:31;24.50;99.90
5118;DHT22;2578;51.622;7.046;2023-06-14T08:56:00;24.70;99.90
5118;DHT22;2578;51.622;7.046;2023-06-14T08:58:28;25.10;99.90
5118;DHT22;2578;51.622;7.046;2023-06-14T09:00:57;25.40;99.90
5118;DHT22;2578;51.622;7.046;2023-06-14T09:03:23;25.40;99.90
5118;DHT22;2578;51.622;7.046;2023-06-14T09:05:58;25.30;99.90
5118;DHT22;2578;51.622;7.046;2023-06-14T09:10:50;25.30;99.90
5118;DHT22;2578;51.622;7.046;2023-06-14T09:13:17;25.40;99.90
5118;DHT22;2578;51.622;7.046;2023-06-14T09:15:43;25.40;99.90
5118;DHT22;2578;51.622;7.046;2023-06-14T09:18:10;25.20;99.90
5118;DHT22;2578;51.622;7.046;2023-06-14T09:20:37;25.20;99.90
5118;DHT22;2578;51.622;7.046;2023-06-14T09:23:02;25.30;99.90
5118;DHT22;2578;51.622;7.046;2023-06-14T09:25:30;25.70;99.90
5118;DHT22;2578;51.622;7.046;2023-06-14T09:27:56;25.80;99.90
5118;DHT22;2578;51.622;7.046;2023-06-14T09:30:21;25.70;99.90
5118;DHT22;2578;51.622;7.046;2023-06-14T09:32:47;25.80;99.90
5118;DHT22;2578;51.622;7.046;2023-06-14T09:35:17;25.80;99.90
5118;DHT22;2578;51.622;7.046;2023-06-14T09:37:43;25.20;99.90
5118;DHT22;2578;51.622;7.046;2023-06-14T09:40:09;24.90;99.90
5118;DHT22;2578;51.622;7.046;2023-06-14T09:42:35;25.10;99.90
5118;DHT22;2578;51.622;7.046;2023-06-14T09:45:05;25.40;99.90
5118;DHT22;2578;51.622;7.046;2023-06-14T09:47:31;25.30;99.90
5118;DHT22;2578;51.622;7.046;2023-06-14T09:49:56;25.30;99.90
5118;DHT22;2578;51.622;7.046;2023-06-14T09:52:22;25.10;99.90
5118;DHT22;2578;51.622;7.046;2023-06-14T09:54:49;25.10;99.90
5118;DHT22;2578;51.622;7.046;2023-06-14T09:57:16;25.00;99.90
5118;DHT22;2578;51.622;7.046;2023-06-14T09:59:44;25.20;99.90
5118;DHT22;2578;51.622;7.046;2023-06-14T10:02:25;25.60;99.90
5118;DHT22;2578;51.622;7.046;2023-06-14T10:05:07;25.80;99.90
5118;DHT22;2578;51.622;7.046;2023-06-14T10:10:09;25.60;99.90
5118;DHT22;2578;51.622;7.046;2023-06-14T10:12:36;25.30;99.90
5118;DHT22;2578;51.622;7.046;2023-06-14T10:15:02;25.40;99.90
5118;DHT22;2578;51.622;7.046;2023-06-14T10:22:58;25.20;99.90
5118;DHT22;2578;51.622;7.046;2023-06-14T10:25:29;25.40;99.90
5118;DHT22;2578;51.622;7.046;2023-06-14T10:30:40;25.40;99.90
5118;DHT22;2578;51.622;7.046;2023-06-14T10:33:26;25.50;99.90
5118;DHT22;2578;51.622;7.046;2023-06-14T10:36:10;25.80;99.90
5118;DHT22;2578;51.622;7.046;2023-06-14T10:38:37;25.90;99.90
5118;DHT22;2578;51.622;7.046;2023-06-14T10:41:04;26.10;99.90
5118;DHT22;2578;51.622;7.046;2023-06-14T10:43:30;26.10;99.90
5118;DHT22;2578;51.622;7.046;2023-06-14T10:46:17;26.30;99.90
5118;DHT22;2578;51.622;7.046;2023-06-14T10:48:45;25.90;99.90
5118;DHT22;2578;51.622;7.046;2023-06-14T10:51:18;26.20;99.90
5118;DHT22;2578;51.622;7.046;2023-06-14T10:53:50;26.20;99.90
5118;DHT22;2578;51.622;7.046;2023-06-14T10:56:29;26.70;99.90
5118;DHT22;2578;51.622;7.046;2023-06-14T10:58:57;27.00;99.90
5118;DHT22;2578;51.622;7.046;2023-06-14T11:01:36;26.70;99.90
5118;DHT22;2578;51.622;7.046;2023-06-14T11:04:07;26.70;99.90
5118;DHT22;2578;51.622;7.046;2023-06-14T11:06:49;26.70;99.90
5118;DHT22;2578;51.622;7.046;2023-06-14T11:12:21;26.80;99.90
5118;DHT22;2578;51.622;7.046;2023-06-14T11:14:47;26.70;99.90
5118;DHT22;2578;51.622;7.046;2023-06-14T11:17:13;26.50;99.90
5118;DHT22;2578;51.622;7.046;2023-06-14T11:19:39;26.50;99.90
5118;DHT22;2578;51.622;7.046;2023-06-14T11:22:04;26.30;99.90
5118;DHT22;2578;51.622;7.046;2023-06-14T11:24:32;26.30;99.90
5118;DHT22;2578;51.622;7.046;2023-06-14T11:26:58;26.50;99.90
5118;DHT22;2578;51.622;7.046;2023-06-14T11:29:23;26.40;99.90
5118;DHT22;2578;51.622;7.046;2023-06-14T11:31:50;26.80;99.90
5118;DHT22;2578;51.622;7.046;2023-06-14T11:34:17;27.00;99.90
5118;DHT22;2578;51.622;7.046;2023-06-14T11:36:43;26.70;99.90
5118;DHT22;2578;51.622;7.046;2023-06-14T11:39:09;26.40;99.90
5118;DHT22;2578;51.622;7.046;2023-06-14T11:41:42;26.70;99.90
5118;DHT22;2578;51.622;7.046;2023-06-14T11:44:09;26.80;99.90
5118;DHT22;2578;51.622;7.046;2023-06-14T11:46:38;27.20;99.90
5118;DHT22;2578;51.622;7.046;2023-06-14T11:49:04;27.20;99.90
5118;DHT22;2578;51.622;7.046;2023-06-14T11:51:33;27.10;99.90
5118;DHT22;2578;51.622;7.046;2023-06-14T11:53:59;27.20;99.90
5118;DHT22;2578;51.622;7.046;2023-06-14T11:56:25;27.30;99.90
5118;DHT22;2578;51.622;7.046;2023-06-14T11:58:52;27.50;99.90
5118;DHT22;2578;51.622;7.046;2023-06-14T12:01:22;26.90;99.90
5118;DHT22;2578;51.622;7.046;2023-06-14T12:03:52;26.80;99.90
5118;DHT22;2578;51.622;7.046;2023-06-14T12:06:29;27.00;99.90
5118;DHT22;2578;51.622;7.046;2023-06-14T12:08:58;27.00;99.90
5118;DHT22;2578;51.622;7.046;2023-06-14T12:11:28;27.20;99.90
5118;DHT22;2578;51.622;7.046;2023-06-14T12:13:53;27.10;99.90
5118;DHT22;2578;51.622;7.046;2023-06-14T12:16:19;27.20;99.90
5118;DHT22;2578;51.622;7.046;2023-06-14T12:18:45;27.30;99.90
5118;DHT22;2578;51.622;7.046;2023-06-14T12:21:11;27.80;99.90
5118;DHT22;2578;51.622;7.046;2023-06-14T12:23:48;27.90;99.90
5118;DHT22;2578;51.622;7.046;2023-06-14T12:26:16;28.10;99.90
5118;DHT22;2578;51.622;7.046;2023-06-14T12:28:44;27.80;99.90
5118;DHT22;2578;51.622;7.046;2023-06-14T12:31:11;27.90;99.90
5118;DHT22;2578;51.622;7.046;2023-06-14T12:33:37;27.90;99.90
5118;DHT22;2578;51.622;7.046;2023-06-14T12:36:04;27.90;99.90
5118;DHT22;2578;51.622;7.046;2023-06-14T12:38:32;28.00;99.90
5118;DHT22;2578;51.622;7.046;2023-06-14T12:40:57;27.70;99.90
5118;DHT22;2578;51.622;7.046;2023-06-14T12:43:23;27.70;99.90
5118;DHT22;2578;51.622;7.046;2023-06-14T12:45:48;27.70;99.90
5118;DHT22;2578;51.622;7.046;2023-06-14T12:48:14;27.90;99.90
5118;DHT22;2578;51.622;7.046;2023-06-14T12:50:41;27.20;99.90
5118;DHT22;2578;51.622;7.046;2023-06-14T12:53:06;27.20;99.90
5118;DHT22;2578;51.622;7.046;2023-06-14T12:57:58;27.40;99.90
5118;DHT22;2578;51.622;7.046;2023-06-14T13:00:24;27.30;99.90
5118;DHT22;2578;51.622;7.046;2023-06-14T13:02:55;27.50;99.90
5118;DHT22;2578;51.622;7.046;2023-06-14T13:05:20;27.40;99.90
5118;DHT22;2578;51.622;7.046;2023-06-14T13:07:46;27.50;99.90
5118;DHT22;2578;51.622;7.046;2023-06-14T13:10:12;27.50;99.90
5118;DHT22;2578;51.622;7.046;2023-06-14T13:12:37;27.60;99.90
5118;DHT22;2578;51.622;7.046;2023-06-14T13:15:03;27.70;99.90
5118;DHT22;2578;51.622;7.046;2023-06-14T13:17:29;27.60;99.90
5118;DHT22;2578;51.622;7.046;2023-06-14T13:19:55;27.80;99.90
5118;DHT22;2578;51.622;7.046;2023-06-14T13:22:20;27.80;99.90
5118;DHT22;2578;51.622;7.046;2023-06-14T13:24:46;27.70;99.90
5118;DHT22;2578;51.622;7.046;2023-06-14T13:27:12;27.70;99.90
5118;DHT22;2578;51.622;7.046;2023-06-14T13:29:40;27.70;99.90
5118;DHT22;2578;51.622;7.046;2023-06-14T13:32:06;27.70;99.90
5118;DHT22;2578;51.622;7.046;2023-06-14T13:34:31;27.90;99.90
5118;DHT22;2578;51.622;7.046;2023-06-14T13:36:57;28.20;99.90
5118;DHT22;2578;51.622;7.046;2023-06-14T13:39:25;28.50;99.90
5118;DHT22;2578;51.622;7.046;2023-06-14T13:41:50;28.10;99.90
5118;DHT22;2578;51.622;7.046;2023-06-14T13:44:16;27.90;99.90
5118;DHT22;2578;51.622;7.046;2023-06-14T13:46:44;27.90;99.90
5118;DHT22;2578;51.622;7.046;2023-06-14T13:49:10;27.90;99.90
5118;DHT22;2578;51.622;7.046;2023-06-14T13:51:36;28.70;99.90
5118;DHT22;2578;51.622;7.046;2023-06-14T13:54:01;28.70;99.90
5118;DHT22;2578;51.622;7.046;2023-06-14T13:56:27;28.40;99.90
5118;DHT22;2578;51.622;7.046;2023-06-14T13:58:53;28.30;99.90
5118;DHT22;2578;51.622;7.046;2023-06-14T14:01:19;27.90;99.90
5118;DHT22;2578;51.622;7.046;2023-06-14T14:03:48;27.70;99.90
5118;DHT22;2578;51.622;7.046;2023-06-14T14:06:18;27.90;99.90
5118;DHT22;2578;51.622;7.046;2023-06-14T14:08:43;28.10;99.90
5118;DHT22;2578;51.622;7.046;2023-06-14T14:11:09;27.90;99.90
5118;DHT22;2578;51.622;7.046;2023-06-14T14:13:35;27.90;99.90
5118;DHT22;2578;51.622;7.046;2023-06-14T14:16:02;27.60;99.90
5118;DHT22;2578;51.622;7.046;2023-06-14T14:18:28;27.70;99.90
5118;DHT22;2578;51.622;7.046;2023-06-14T14:20:54;27.80;99.90
5118;DHT22;2578;51.622;7.046;2023-06-14T14:25:46;27.40;99.90
5118;DHT22;2578;51.622;7.046;2023-06-14T14:28:12;27.20;99.90
5118;DHT22;2578;51.622;7.046;2023-06-14T14:30:39;27.40;99.90
5118;DHT22;2578;51.622;7.046;2023-06-14T14:33:05;27.40;99.90
5118;DHT22;2578;51.622;7.046;2023-06-14T14:35:32;27.40;99.90
5118;DHT22;2578;51.622;7.046;2023-06-14T14:37:57;27.40;99.90
5118;DHT22;2578;51.622;7.046;2023-06-14T14:40:23;27.40;99.90
5118;DHT22;2578;51.622;7.046;2023-06-14T14:42:48;27.50;99.90
5118;DHT22;2578;51.622;7.046;2023-06-14T14:45:14;27.50;99.90
5118;DHT22;2578;51.622;7.046;2023-06-14T14:47:40;27.30;99.90
5118;DHT22;2578;51.622;7.046;2023-06-14T14:50:06;27.00;99.90
5118;DHT22;2578;51.622;7.046;2023-06-14T14:52:34;27.10;99.90
5118;DHT22;2578;51.622;7.046;2023-06-14T14:55:00;27.30;99.90
5118;DHT22;2578;51.622;7.046;2023-06-14T14:57:26;27.30;99.90
5118;DHT22;2578;51.622;7.046;2023-06-14T14:59:52;27.50;99.90
5118;DHT22;2578;51.622;7.046;2023-06-14T15:02:17;27.40;99.90
5118;DHT22;2578;51.622;7.046;2023-06-14T15:04:44;27.40;99.90
5118;DHT22;2578;51.622;7.046;2023-06-14T15:07:10;27.40;99.90
5118;DHT22;2578;51.622;7.046;2023-06-14T15:09:35;27.30;99.90
5118;DHT22;2578;51.622;7.046;2023-06-14T15:12:01;27.50;99.90
5118;DHT22;2578;51.622;7.046;2023-06-14T15:14:28;27.60;99.90
5118;DHT22;2578;51.622;7.046;2023-06-14T15:16:53;27.70;99.90
5118;DHT22;2578;51.622;7.046;2023-06-14T15:19:19;27.80;99.90
5118;DHT22;2578;51.622;7.046;2023-06-14T15:21:44;27.60;99.90
5118;DHT22;2578;51.622;7.046;2023-06-14T15:24:10;27.60;99.90
5118;DHT22;2578;51.622;7.046;2023-06-14T15:26:36;27.50;99.90
5118;DHT22;2578;51.622;7.046;2023-06-14T15:29:01;27.60;99.90
5118;DHT22;2578;51.622;7.046;2023-06-14T15:31:27;27.50;99.90
5118;DHT22;2578;51.622;7.046;2023-06-14T15:33:54;27.70;99.90
5118;DHT22;2578;51.622;7.046;2023-06-14T15:36:20;27.70;99.90
5118;DHT22;2578;51.622;7.046;2023-06-14T15:38:45;27.60;99.90
5118;DHT22;2578;51.622;7.046;2023-06-14T15:41:11;27.60;99.90
5118;DHT22;2578;51.622;7.046;2023-06-14T15:43:37;27.60;99.90
5118;DHT22;2578;51.622;7.046;2023-06-14T15:46:02;27.90;99.90
5118;DHT22;2578;51.622;7.046;2023-06-14T15:48:28;28.00;99.90
5118;DHT22;2578;51.622;7.046;2023-06-14T15:50:53;28.10;99.90
5118;DHT22;2578;51.622;7.046;2023-06-14T15:53:19;28.10;99.90
5118;DHT22;2578;51.622;7.046;2023-06-14T15:55:46;28.20;99.90
5118;DHT22;2578;51.622;7.046;2023-06-14T15:58:12;28.00;99.90
5118;DHT22;2578;51.622;7.046;2023-06-14T16:00:37;27.60;99.90
5118;DHT22;2578;51.622;7.046;2023-06-14T16:03:03;27.60;99.90
5118;DHT22;2578;51.622;7.046;2023-06-14T16:05:28;27.50;99.90
5118;DHT22;2578;51.622;7.046;2023-06-14T16:07:54;27.30;99.90
5118;DHT22;2578;51.622;7.046;2023-06-14T16:10:20;27.30;99.90
5118;DHT22;2578;51.622;7.046;2023-06-14T16:12:45;27.30;99.90
5118;DHT22;2578;51.622;7.046;2023-06-14T16:15:11;27.50;99.90
5118;DHT22;2578;51.622;7.046;2023-06-14T16:17:37;27.50;99.90
5118;DHT22;2578;51.622;7.046;2023-06-14T16:20:03;27.70;99.90
5118;DHT22;2578;51.622;7.046;2023-06-14T16:22:29;27.70;99.90
5118;DHT22;2578;51.622;7.046;2023-06-14T16:24:54;27.60;99.90